createdAt,value
2018-07-22T00:02:05.961Z,10.60
2018-07-22T00:04:37.113Z,10.55
2018-07-22T00:07:07.747Z,10.50
2018-07-22T00:09:39.403Z,10.50
2018-07-22T00:12:10.204Z,9.50
2018-07-22T00:14:42.176Z,10.13
2018-07-22T00:17:13.715Z,10.13
2018-07-22T00:19:44.165Z,10.30
2018-07-22T00:22:15.094Z,10.45
2018-07-22T00:24:46.934Z,10.38
2018-07-22T00:27:18.459Z,10.40
2018-07-22T00:29:47.200Z,9.90
2018-07-22T00:32:17.167Z,10.63
2018-07-22T00:34:46.371Z,10.25
2018-07-22T00:37:15.620Z,10.40
2018-07-22T00:39:44.670Z,11.48
2018-07-22T00:42:14.568Z,10.53
2018-07-22T00:44:43.407Z,10.63
2018-07-22T00:47:13.125Z,10.98
2018-07-22T00:49:42.061Z,11.12
2018-07-22T00:52:12.020Z,11.10
2018-07-22T00:54:40.909Z,10.75
2018-07-22T00:57:10.854Z,11.65
2018-07-22T00:59:39.942Z,10.65
2018-07-22T01:02:08.758Z,11.15
2018-07-22T01:04:37.606Z,10.93
2018-07-22T01:07:07.005Z,11.22
2018-07-22T01:09:35.739Z,10.45
2018-07-22T01:12:04.729Z,10.93
2018-07-22T01:14:33.632Z,10.20
2018-07-22T01:17:01.904Z,9.75
2018-07-22T01:19:31.534Z,9.88
2018-07-22T01:22:00.212Z,10.53
2018-07-22T01:24:28.948Z,10.00
2018-07-22T01:26:57.526Z,10.18
2018-07-22T01:29:26.539Z,10.20
2018-07-22T01:31:55.244Z,10.63
2018-07-22T01:34:23.929Z,10.30
2018-07-22T01:36:52.564Z,10.63
2018-07-22T01:39:21.414Z,10.18
2018-07-22T01:41:50.019Z,10.32
2018-07-22T01:44:18.813Z,11.20
2018-07-22T01:46:47.636Z,10.68
2018-07-22T01:49:16.363Z,11.33
2018-07-22T01:51:44.944Z,11.65
2018-07-22T01:54:13.707Z,12.20
2018-07-22T01:56:43.036Z,10.78
2018-07-22T01:59:12.710Z,10.65
2018-07-22T02:01:41.509Z,10.85
2018-07-22T02:04:10.072Z,10.50
2018-07-22T02:06:39.781Z,10.72
2018-07-22T02:09:10.033Z,10.45
2018-07-22T02:11:39.905Z,10.72
2018-07-22T02:14:09.135Z,11.63
2018-07-22T02:16:38.380Z,10.72
2018-07-22T02:19:07.384Z,11.20
2018-07-22T02:21:35.972Z,11.93
2018-07-22T02:24:04.636Z,11.73
2018-07-22T02:26:33.287Z,11.15
2018-07-22T02:29:02.007Z,11.97
2018-07-22T02:31:30.981Z,10.98
2018-07-22T02:33:59.662Z,11.57
2018-07-22T02:36:28.269Z,11.50
2018-07-22T02:38:56.505Z,11.28
2018-07-22T02:41:25.253Z,11.20
2018-07-22T02:43:53.583Z,11.15
2018-07-22T02:46:22.218Z,11.18
2018-07-22T02:48:50.933Z,10.95
2018-07-22T02:51:19.577Z,11.30
2018-07-22T02:53:48.111Z,11.60
2018-07-22T02:56:16.952Z,11.97
2018-07-22T02:58:45.486Z,11.45
2018-07-22T03:01:14.466Z,12.13
2018-07-22T03:03:43.160Z,11.35
2018-07-22T03:06:11.753Z,11.38
2018-07-22T03:08:40.618Z,12.05
2018-07-22T03:11:09.197Z,11.40
2018-07-22T03:13:37.976Z,11.53
2018-07-22T03:16:06.671Z,11.65
2018-07-22T03:18:35.993Z,11.12
2018-07-22T03:21:04.780Z,10.65
2018-07-22T03:23:33.410Z,12.15
2018-07-22T03:26:02.806Z,11.93
2018-07-22T03:28:31.396Z,11.33
2018-07-22T03:31:00.044Z,11.55
2018-07-22T03:33:28.913Z,14.05
2018-07-22T03:35:58.450Z,12.75
2018-07-22T03:38:27.474Z,12.93
2018-07-22T03:40:56.459Z,13.08
2018-07-22T03:43:26.604Z,12.90
2018-07-22T03:45:56.432Z,13.75
2018-07-22T03:48:27.028Z,14.18
2018-07-22T03:50:57.410Z,14.95
2018-07-22T03:53:26.079Z,14.45
2018-07-22T03:55:55.821Z,14.70
2018-07-22T03:58:25.579Z,14.83
2018-07-22T04:00:54.304Z,14.87
2018-07-22T04:03:22.957Z,14.98
2018-07-22T04:05:51.724Z,15.03
2018-07-22T04:08:20.504Z,16.75
2018-07-22T04:10:49.200Z,17.92
2018-07-22T04:13:17.818Z,16.75
2018-07-22T04:15:46.535Z,15.90
2018-07-22T04:18:15.450Z,16.50
2018-07-22T04:20:44.208Z,17.60
2018-07-22T04:23:12.909Z,16.65
2018-07-22T04:25:41.924Z,17.15
2018-07-22T04:28:10.807Z,18.45
2018-07-22T04:30:40.139Z,17.70
2018-07-22T04:33:09.380Z,17.55
2018-07-22T04:35:38.384Z,18.42
2018-07-22T04:38:08.504Z,18.45
2018-07-22T04:40:38.138Z,18.62
2018-07-22T04:43:06.803Z,17.17
2018-07-22T04:45:35.917Z,18.55
2018-07-22T04:48:05.394Z,16.97
2018-07-22T04:50:34.156Z,17.67
2018-07-22T04:53:03.225Z,17.60
2018-07-22T04:55:32.036Z,16.70
2018-07-22T04:58:01.528Z,16.50
2018-07-22T05:00:31.111Z,16.30
2018-07-22T05:02:59.797Z,21.30
2018-07-22T05:05:28.748Z,20.02
2018-07-22T05:07:57.441Z,21.12
2018-07-22T05:10:26.161Z,19.92
2018-07-22T05:12:55.283Z,19.62
2018-07-22T05:15:23.930Z,20.88
2018-07-22T05:17:52.999Z,20.20
2018-07-22T05:20:21.691Z,20.90
2018-07-22T05:22:51.696Z,20.40
2018-07-22T05:25:20.670Z,21.85
2018-07-22T05:27:49.268Z,20.48
2018-07-22T05:30:18.264Z,20.97
2018-07-22T05:32:46.910Z,21.77
2018-07-22T05:35:15.584Z,19.90
2018-07-22T05:37:44.753Z,21.85
2018-07-22T05:40:13.524Z,21.27
2018-07-22T05:42:42.165Z,21.07
2018-07-22T05:45:10.979Z,22.13
2018-07-22T05:47:39.397Z,22.82
2018-07-22T05:50:08.948Z,20.82
2018-07-22T05:52:37.700Z,24.92
2018-07-22T05:55:06.802Z,21.93
2018-07-22T05:57:35.782Z,24.07
2018-07-22T06:00:06.044Z,22.82
2018-07-22T06:02:35.102Z,23.92
2018-07-22T06:05:04.636Z,24.75
2018-07-22T06:07:33.859Z,25.37
2018-07-22T06:10:03.430Z,26.93
2018-07-22T06:12:32.445Z,26.45
2018-07-22T06:15:01.090Z,25.02
2018-07-22T06:17:30.567Z,24.65
2018-07-22T06:19:59.320Z,24.72
2018-07-22T06:22:28.336Z,24.52
2018-07-22T06:24:56.912Z,22.25
2018-07-22T06:27:26.204Z,22.17
2018-07-22T06:29:54.779Z,21.57
2018-07-22T06:32:23.504Z,20.80
2018-07-22T06:34:52.332Z,19.92
2018-07-22T06:37:21.463Z,19.12
2018-07-22T06:39:50.099Z,20.80
2018-07-22T06:42:18.811Z,20.50
2018-07-22T06:44:47.562Z,19.60
2018-07-22T06:47:16.387Z,19.57
2018-07-22T06:49:45.014Z,18.48
2018-07-22T06:52:14.095Z,18.42
2018-07-22T06:54:42.736Z,18.52
2018-07-22T06:57:11.521Z,16.50
2018-07-22T06:59:40.742Z,16.70
2018-07-22T07:02:09.506Z,16.77
2018-07-22T07:04:38.358Z,16.25
2018-07-22T07:07:07.517Z,17.20
2018-07-22T07:09:38.112Z,16.35
2018-07-22T07:12:07.181Z,15.80
2018-07-22T07:14:36.287Z,17.10
2018-07-22T07:17:05.315Z,17.87
2018-07-22T07:19:34.572Z,16.90
2018-07-22T07:22:03.355Z,15.68
2018-07-22T07:24:31.974Z,15.08
2018-07-22T07:27:01.633Z,17.65
2018-07-22T07:29:31.291Z,13.90
2018-07-22T07:32:00.373Z,16.60
2018-07-22T07:34:28.993Z,14.93
2018-07-22T07:36:58.130Z,15.53
2018-07-22T07:39:26.938Z,14.70
2018-07-22T07:41:55.561Z,15.23
2018-07-22T07:44:24.467Z,12.80
2018-07-22T07:46:53.196Z,14.20
2018-07-22T07:49:21.899Z,12.93
2018-07-22T07:51:50.569Z,12.33
2018-07-22T07:54:19.200Z,12.30
2018-07-22T07:56:48.384Z,12.43
2018-07-22T07:59:17.136Z,9.33
2018-07-22T08:01:45.760Z,9.40
2018-07-22T08:04:14.567Z,9.30
2018-07-22T08:06:43.186Z,8.68
2018-07-22T08:09:12.068Z,8.30
2018-07-22T08:11:41.030Z,8.08
2018-07-22T08:14:10.147Z,8.13
2018-07-22T08:16:38.875Z,8.00
2018-07-22T08:19:07.842Z,7.58
2018-07-22T08:21:36.599Z,8.08
2018-07-22T08:24:05.581Z,8.08
2018-07-22T08:26:34.475Z,8.48
2018-07-22T08:29:28.318Z,8.00
2018-07-22T08:31:57.846Z,8.00
2018-07-22T08:34:28.570Z,8.20
2018-07-22T08:36:58.152Z,8.50
2018-07-22T08:39:28.405Z,8.70
2018-07-22T08:41:57.557Z,8.40
2018-07-22T08:44:26.301Z,9.33
2018-07-22T08:46:55.035Z,8.68
2018-07-22T08:49:23.704Z,9.10
2018-07-22T08:51:52.657Z,9.13
2018-07-22T08:54:21.301Z,9.18
2018-07-22T08:56:49.991Z,8.15
2018-07-22T08:59:18.768Z,8.65
2018-07-22T09:01:47.425Z,8.95
2018-07-22T09:04:16.060Z,8.50
2018-07-22T09:06:45.173Z,8.30
2018-07-22T09:09:13.786Z,8.78
2018-07-22T09:11:42.084Z,8.60
2018-07-22T09:14:11.191Z,9.00
2018-07-22T09:16:40.458Z,8.20
2018-07-22T09:19:09.454Z,8.50
2018-07-22T09:21:39.102Z,7.92
2018-07-22T09:24:08.055Z,8.00
2018-07-22T09:26:37.081Z,8.38
2018-07-22T09:29:06.073Z,8.38
2018-07-22T09:31:34.832Z,8.55
2018-07-22T09:34:04.259Z,8.60
2018-07-22T09:36:33.443Z,8.65
2018-07-22T09:39:02.525Z,8.30
2018-07-22T09:41:31.217Z,8.25
2018-07-22T09:44:00.220Z,8.40
2018-07-22T09:46:29.013Z,8.53
2018-07-22T09:48:58.103Z,7.40
2018-07-22T09:51:27.557Z,7.50
2018-07-22T09:53:56.339Z,8.10
2018-07-22T09:56:25.055Z,8.15
2018-07-22T09:58:53.766Z,7.55
2018-07-22T10:01:22.580Z,7.83
2018-07-22T10:03:51.264Z,8.43
2018-07-22T10:06:20.340Z,7.50
2018-07-22T10:08:49.408Z,8.50
2018-07-22T10:11:18.310Z,7.60
2018-07-22T10:13:47.048Z,7.35
2018-07-22T10:16:15.886Z,7.87
2018-07-22T10:18:44.618Z,7.83
2018-07-22T10:21:13.281Z,7.72
2018-07-22T10:23:42.057Z,7.72
2018-07-22T10:26:10.752Z,8.08
2018-07-22T10:28:40.276Z,8.30
2018-07-22T10:31:08.929Z,7.78
2018-07-22T10:33:37.713Z,8.20
2018-07-22T10:36:06.641Z,8.05
2018-07-22T10:38:35.449Z,7.75
2018-07-22T10:41:04.314Z,8.30
2018-07-22T10:43:33.354Z,8.35
2018-07-22T10:46:02.135Z,8.75
2018-07-22T10:48:30.700Z,9.03
2018-07-22T10:50:59.360Z,9.23
2018-07-22T10:53:28.137Z,8.93
2018-07-22T10:55:56.740Z,9.10
2018-07-22T10:58:25.491Z,11.10
2018-07-22T11:00:54.301Z,9.58
2018-07-22T11:03:24.669Z,10.43
2018-07-22T11:05:53.797Z,10.70
2018-07-22T11:08:22.452Z,10.60
2018-07-22T11:10:51.255Z,10.80
2018-07-22T11:13:19.955Z,11.05
2018-07-22T11:15:48.680Z,11.18
2018-07-22T11:18:17.046Z,11.57
2018-07-22T11:20:46.046Z,11.00
2018-07-22T11:23:14.912Z,11.78
2018-07-22T11:25:43.618Z,11.03
2018-07-22T11:28:12.639Z,11.88
2018-07-22T11:30:42.358Z,11.18
2018-07-22T11:33:11.024Z,10.63
2018-07-22T11:35:40.071Z,10.43
2018-07-22T11:38:08.766Z,10.13
2018-07-22T11:40:38.031Z,9.38
2018-07-22T11:43:06.663Z,8.70
2018-07-22T11:45:35.455Z,9.45
2018-07-22T11:48:04.124Z,9.00
2018-07-22T11:50:33.225Z,9.88
2018-07-22T11:53:01.782Z,9.85
2018-07-22T11:55:30.610Z,10.60
2018-07-22T11:57:59.265Z,10.45
2018-07-22T12:00:30.420Z,10.15
2018-07-22T12:03:01.178Z,10.08
2018-07-22T12:05:30.203Z,9.50
2018-07-22T12:07:59.255Z,9.53
2018-07-22T12:13:04.260Z,9.73
2018-07-22T12:18:48.416Z,10.93
2018-07-22T12:21:17.051Z,11.03
2018-07-22T12:23:45.959Z,11.88
2018-07-22T12:26:14.720Z,11.48
2018-07-22T12:28:43.459Z,10.58
2018-07-22T12:31:12.937Z,10.35
2018-07-22T12:33:41.455Z,10.72
2018-07-22T12:36:10.312Z,11.78
2018-07-22T12:38:39.137Z,13.53
2018-07-22T12:41:07.871Z,12.37
2018-07-22T12:43:37.042Z,13.03
2018-07-22T12:46:06.140Z,13.55
2018-07-22T12:48:35.353Z,13.68
2018-07-22T12:51:04.341Z,11.78
2018-07-22T12:53:32.929Z,10.50
2018-07-22T12:56:02.348Z,8.73
2018-07-22T12:58:31.014Z,9.78
2018-07-22T13:00:59.928Z,9.80
2018-07-22T13:03:28.527Z,9.90
2018-07-22T13:06:02.410Z,9.28
2018-07-22T13:08:31.209Z,9.90
2018-07-22T13:11:00.221Z,8.80
2018-07-22T13:13:28.962Z,8.70
2018-07-22T13:15:57.843Z,9.30
2018-07-22T13:18:26.674Z,9.10
2018-07-22T13:20:55.774Z,8.80
2018-07-22T13:23:25.406Z,8.83
2018-07-22T13:25:55.192Z,8.58
2018-07-22T13:28:25.847Z,8.70
2018-07-22T13:30:56.256Z,9.35
2018-07-22T13:33:27.388Z,9.48
2018-07-22T13:35:57.518Z,8.93
2018-07-22T13:38:28.234Z,10.18
2018-07-22T13:40:58.485Z,9.20
2018-07-22T13:43:28.754Z,10.45
2018-07-22T13:45:58.458Z,10.10
2018-07-22T13:48:28.157Z,9.88
